createdAt,value
2018-06-01T00:04:37.342Z,23.30
2018-06-01T00:09:40.640Z,23.20
2018-06-01T00:14:43.218Z,23.10
2018-06-01T00:19:45.810Z,23.20
2018-06-01T00:24:48.378Z,23.10
2018-06-01T00:29:50.956Z,23.10
2018-06-01T00:34:53.509Z,23.10
2018-06-01T00:39:56.118Z,23.00
2018-06-01T00:44:58.656Z,23.00
2018-06-01T00:50:01.255Z,23.00
2018-06-01T00:55:16.458Z,22.90
2018-06-01T01:00:19.008Z,22.80
2018-06-01T01:05:22.565Z,22.90
2018-06-01T01:10:25.900Z,22.90
2018-06-01T01:15:28.437Z,22.80
2018-06-01T01:20:31.031Z,22.90
2018-06-01T01:25:34.369Z,22.90
2018-06-01T01:30:36.959Z,22.90
2018-06-01T01:35:39.509Z,22.90
2018-06-01T01:40:42.050Z,22.90
2018-06-01T01:45:44.654Z,22.90
2018-06-01T01:50:47.250Z,23.00
2018-06-01T01:55:50.565Z,23.00
2018-06-01T02:00:53.106Z,22.90
2018-06-01T02:05:55.691Z,22.90
2018-06-01T02:10:58.262Z,22.90
2018-06-01T02:16:00.806Z,22.90
2018-06-01T02:21:04.103Z,22.80
2018-06-01T02:26:06.650Z,22.80
2018-06-01T02:31:09.166Z,22.80
2018-06-01T02:36:11.680Z,22.90
2018-06-01T02:41:14.207Z,22.80
2018-06-01T02:46:17.506Z,22.80
2018-06-01T02:51:20.807Z,22.70
2018-06-01T02:56:23.328Z,22.70
2018-06-01T03:01:25.833Z,22.70
2018-06-01T03:12:05.125Z,22.60
2018-06-01T03:17:07.663Z,22.60
2018-06-01T03:22:10.185Z,22.60
2018-06-01T03:27:13.499Z,22.60
2018-06-01T03:32:16.794Z,22.60
2018-06-01T03:37:19.368Z,22.60
2018-06-01T03:42:21.885Z,22.50
2018-06-01T03:47:25.214Z,22.60
2018-06-01T03:52:28.523Z,22.50
2018-06-01T03:57:31.817Z,22.50
2018-06-01T04:02:34.349Z,22.40
2018-06-01T04:07:36.918Z,22.40
2018-06-01T04:12:39.454Z,22.40
2018-06-01T04:17:41.977Z,22.40
2018-06-01T04:22:44.501Z,22.30
2018-06-01T04:27:47.826Z,22.40
2018-06-01T04:32:51.138Z,22.40
2018-06-01T04:37:54.441Z,22.40
2018-06-01T04:42:57.733Z,22.30
2018-06-01T04:48:00.251Z,22.20
2018-06-01T04:53:03.528Z,22.20
2018-06-01T04:58:07.062Z,22.20
2018-06-01T05:03:09.599Z,22.20
2018-06-01T05:08:12.142Z,22.10
2018-06-01T05:13:14.675Z,22.00
2018-06-01T05:18:17.209Z,22.00
2018-06-01T05:23:19.724Z,22.00
2018-06-01T05:28:22.287Z,21.90
2018-06-01T05:33:24.804Z,21.90
2018-06-01T05:38:27.337Z,21.80
2018-06-01T05:43:30.628Z,21.80
2018-06-01T05:48:33.181Z,21.70
2018-06-01T05:53:35.718Z,21.80
2018-06-01T05:58:38.237Z,21.80
2018-06-01T06:03:41.559Z,21.90
2018-06-01T06:08:44.121Z,21.80
2018-06-01T06:13:46.686Z,21.90
2018-06-01T06:18:49.222Z,22.00
2018-06-01T06:23:52.550Z,22.10
2018-06-01T06:28:55.097Z,22.10
2018-06-01T06:33:57.629Z,22.20
2018-06-01T06:39:00.929Z,22.40
2018-06-01T06:44:04.220Z,22.50
2018-06-01T06:49:06.764Z,22.40
2018-06-01T06:54:09.365Z,22.50
2018-06-01T06:59:11.918Z,22.60
2018-06-01T07:04:14.475Z,22.60
2018-06-01T07:09:17.059Z,22.70
2018-06-01T07:14:19.602Z,22.80
2018-06-01T07:19:22.989Z,23.10
2018-06-01T07:24:25.602Z,23.00
2018-06-01T07:29:28.142Z,23.20
2018-06-01T07:34:30.693Z,23.40
2018-06-01T07:39:33.221Z,23.50
2018-06-01T07:44:35.798Z,23.60
2018-06-01T07:49:39.142Z,23.80
2018-06-01T07:54:41.734Z,23.70
2018-06-01T07:59:44.309Z,23.80
2018-06-01T08:04:47.620Z,23.80
2018-06-01T08:09:50.937Z,23.80
2018-06-01T08:14:54.263Z,23.80
2018-06-01T08:19:56.813Z,23.70
2018-06-01T08:24:59.361Z,23.80
2018-06-01T08:30:01.935Z,23.90
2018-06-01T08:35:05.241Z,23.90
2018-06-01T08:40:08.534Z,23.90
2018-06-01T08:45:11.074Z,23.90
2018-06-01T08:50:13.618Z,24.00
2018-06-01T08:55:16.146Z,23.90
2018-06-01T09:00:18.686Z,23.80
2018-06-01T09:05:21.233Z,23.70
2018-06-01T09:10:23.844Z,23.70
2018-06-01T09:15:26.429Z,23.70
2018-06-01T09:20:29.027Z,23.80
2018-06-01T09:25:31.637Z,23.90
2018-06-01T09:30:34.172Z,23.90
2018-06-01T09:35:36.727Z,24.00
2018-06-01T09:40:39.318Z,24.10
2018-06-01T09:45:41.861Z,24.10
2018-06-01T09:50:44.423Z,24.20
2018-06-01T09:55:47.001Z,24.40
2018-06-01T10:00:55.317Z,24.50
2018-06-01T10:05:57.838Z,24.70
2018-06-01T10:11:06.144Z,24.90
2018-06-01T10:16:08.704Z,25.10
2018-06-01T10:21:11.271Z,25.50
2018-06-01T10:26:13.808Z,25.70
2018-06-01T10:31:17.120Z,26.10
2018-06-01T10:36:20.503Z,26.30
2018-06-01T10:41:23.090Z,26.20
2018-06-01T10:46:25.653Z,26.40
2018-06-01T10:51:28.226Z,26.40
2018-06-01T10:56:31.594Z,26.40
2018-06-01T11:01:34.972Z,26.50
2018-06-01T11:06:37.544Z,26.40
2018-06-01T11:11:40.101Z,26.70
2018-06-01T11:16:42.716Z,26.60
2018-06-01T11:21:46.805Z,26.30
2018-06-01T11:26:50.654Z,26.30
2018-06-01T11:31:53.219Z,26.10
2018-06-01T11:36:55.789Z,25.80
2018-06-01T11:41:58.321Z,25.50
2018-06-01T11:47:00.881Z,25.20
2018-06-01T11:52:03.474Z,25.00
2018-06-01T11:57:06.064Z,24.90
2018-06-01T12:02:09.363Z,25.00
2018-06-01T12:07:12.677Z,25.20
2018-06-01T12:12:17.996Z,25.30
2018-06-01T12:17:20.542Z,25.30
2018-06-01T12:22:23.890Z,25.60
2018-06-01T12:27:26.469Z,25.60
2018-06-01T12:32:29.025Z,25.80
2018-06-01T12:37:31.690Z,25.80
2018-06-01T12:42:34.261Z,25.90
2018-06-01T12:47:36.840Z,26.00
2018-06-01T12:52:39.391Z,26.10
2018-06-01T12:57:41.970Z,26.30
2018-06-01T13:02:45.453Z,26.60
2018-06-01T13:07:48.030Z,26.80
2018-06-01T13:12:50.618Z,27.00
2018-06-01T13:17:53.950Z,27.20
2018-06-01T13:22:56.529Z,27.10
2018-06-01T13:27:59.108Z,27.20
2018-06-01T13:33:01.649Z,27.20
2018-06-01T13:38:04.217Z,27.30
2018-06-01T13:43:07.551Z,27.30
2018-06-01T13:48:10.076Z,27.30
2018-06-01T13:53:12.661Z,27.40
2018-06-01T13:58:15.221Z,27.50
2018-06-01T14:03:17.812Z,27.60
2018-06-01T14:08:21.226Z,27.90
2018-06-01T14:13:24.629Z,28.00
2018-06-01T14:18:27.966Z,28.10
2018-06-01T14:23:30.546Z,28.10
2018-06-01T14:28:33.975Z,28.20
2018-06-01T14:33:36.575Z,28.10
2018-06-01T14:38:39.154Z,28.20
2018-06-01T14:43:41.810Z,28.30
2018-06-01T14:48:44.368Z,28.30
2018-06-01T14:53:46.934Z,28.20
2018-06-01T14:58:49.545Z,28.10
2018-06-01T15:03:52.126Z,28.00
2018-06-01T15:08:55.460Z,27.90
2018-06-01T15:13:58.063Z,27.80
2018-06-01T15:19:00.665Z,27.80
2018-06-01T15:24:03.249Z,27.70
2018-06-01T15:29:05.824Z,27.70
2018-06-01T15:34:08.435Z,27.70
2018-06-01T15:39:11.144Z,27.80
2018-06-01T15:44:13.766Z,27.80
2018-06-01T15:49:16.410Z,27.90
2018-06-01T15:54:19.746Z,28.10
2018-06-01T15:59:22.333Z,28.10
2018-06-01T16:04:25.768Z,28.20
2018-06-01T16:09:28.357Z,28.20
2018-06-01T16:14:30.954Z,28.20
2018-06-01T16:19:33.541Z,28.00
2018-06-01T16:24:36.165Z,27.90
2018-06-01T16:29:38.759Z,27.70
2018-06-01T16:34:41.332Z,27.60
2018-06-01T16:39:43.897Z,27.50
2018-06-01T16:44:47.241Z,27.40
2018-06-01T16:49:49.864Z,27.40
2018-06-01T16:54:52.467Z,27.30
2018-06-01T16:59:55.026Z,27.20
2018-06-01T17:04:57.578Z,27.10
2018-06-01T17:10:00.947Z,26.90
2018-06-01T17:15:04.305Z,26.90
2018-06-01T17:25:36.516Z,26.80
2018-06-01T17:31:04.955Z,26.70
2018-06-01T17:36:20.327Z,26.60
2018-06-01T17:41:31.911Z,26.60
2018-06-01T17:52:07.462Z,26.00
2018-06-01T17:57:13.457Z,26.00
2018-06-01T18:02:22.889Z,25.80
2018-06-01T18:07:29.858Z,25.60
2018-06-01T18:12:38.904Z,25.40
2018-06-01T18:17:41.533Z,25.30
2018-06-01T18:22:46.307Z,25.20
2018-06-01T18:27:48.897Z,25.10
2018-06-01T18:32:52.005Z,25.00
2018-06-01T18:37:54.643Z,24.90
2018-06-01T18:42:57.232Z,24.70
2018-06-01T18:47:59.897Z,24.60
2018-06-01T18:53:02.518Z,24.40
2018-06-01T18:58:05.137Z,24.30
2018-06-01T19:03:08.505Z,24.00
2018-06-01T19:08:11.116Z,24.00
2018-06-01T19:13:13.703Z,23.80
2018-06-01T19:18:17.199Z,23.70
2018-06-01T19:23:19.785Z,23.50
2018-06-01T19:28:22.353Z,23.30
2018-06-01T19:33:24.933Z,23.30
2018-06-01T19:38:27.535Z,23.20
2018-06-01T19:43:30.891Z,23.00
2018-06-01T19:48:33.477Z,23.00
2018-06-01T19:53:36.055Z,22.90
2018-06-01T19:58:39.414Z,22.80
2018-06-01T20:03:42.034Z,22.80
2018-06-01T20:08:44.695Z,22.80
2018-06-01T20:13:48.257Z,22.70
2018-06-01T20:18:50.861Z,22.60
2018-06-01T20:23:53.429Z,22.60
2018-06-01T20:28:56.062Z,22.50
2018-06-01T20:34:00.386Z,22.50
2018-06-01T20:39:03.045Z,22.40
2018-06-01T20:44:05.653Z,22.50
2018-06-01T20:49:08.222Z,22.40
2018-06-01T20:54:10.815Z,22.40
2018-06-01T20:59:13.401Z,22.40
2018-06-01T21:04:15.994Z,22.40
2018-06-01T21:09:18.623Z,22.40
2018-06-01T21:14:21.222Z,22.30
2018-06-01T21:19:23.793Z,22.20
2018-06-01T21:24:26.449Z,22.20
2018-06-01T21:29:29.827Z,22.10
2018-06-01T21:34:32.431Z,22.00
2018-06-01T21:39:35.107Z,22.00
2018-06-01T21:44:37.698Z,21.90
2018-06-01T21:49:40.358Z,21.90
2018-06-01T21:54:43.729Z,21.80
2018-06-01T21:59:46.305Z,21.70
2018-06-01T22:04:50.231Z,21.70
2018-06-01T22:09:52.817Z,21.70
2018-06-01T22:14:55.398Z,21.70
2018-06-01T22:19:57.969Z,21.70
2018-06-01T22:25:00.521Z,21.70
2018-06-01T22:30:03.106Z,21.60
2018-06-01T22:35:05.681Z,21.60
2018-06-01T22:40:09.177Z,21.50
2018-06-01T22:45:12.491Z,21.50
2018-06-01T22:50:15.815Z,21.40
2018-06-01T22:55:19.183Z,21.40
2018-06-01T23:05:56.379Z,21.40
2018-06-01T23:10:58.969Z,21.30
2018-06-01T23:16:01.539Z,21.20
2018-06-01T23:21:04.867Z,21.10
2018-06-01T23:26:08.201Z,21.10
2018-06-01T23:31:10.750Z,21.00
2018-06-01T23:36:13.320Z,21.10
2018-06-01T23:41:15.886Z,21.00
2018-06-01T23:46:18.444Z,21.00
2018-06-01T23:51:21.013Z,20.90
2018-06-01T23:56:23.606Z,20.80
